Flight Track Log - Related Links

Times and Time Zones

All times are in EDT time to prevent confusion due to time zone crossing. See the SWA558 flight status page for this flight to view local times or setup timezone preferences in your user account.

Time Position Orientation Groundspeed Altitude Reporting Facility
EDT Latitude Longitude Course Direction KTS MPH feet Rate Location/Type
Wed 07:17:03 PM 36.0769 -115.1119 95° East 159 183 3,100  Level Los Angeles Center
Wed 07:17:15 PM 36.0761 -115.0989 95° East 166 191 3,300 1,151 Climbing Los Angeles Center
Wed 07:18:16 PM 36.0739 -115.0200 92° East 273 314 4,500 1,820 Climbing Los Angeles Center
Wed 07:19:17 PM 36.0439 -114.9419 115° Southeast 272 313 7,000 2,705 Climbing Los Angeles Center
Wed 07:20:18 PM 35.9678 -114.9594 191° South 289 333 10,000 3,069 Climbing Los Angeles Center
Wed 07:21:28 PM 35.8683 -114.9644 182° South 318 366 13,700 2,864 Climbing Los Angeles Center
Wed 07:22:30 PM 35.7756 -114.9669 181° South 335 386 16,300 2,758 Climbing Los Angeles Center
Wed 07:23:32 PM 35.6733 -114.9703 182° South 359 413 19,400 2,855 Climbing Los Angeles Center
Wed 07:24:34 PM 35.5706 -114.9794 184° South 367 422 22,200 2,419 Climbing Los Angeles Center
Wed 07:25:36 PM 35.4683 -115.0294 202° Southwest 389 448 24,400 2,226 Climbing Los Angeles Center
Wed 07:26:38 PM 35.3639 -115.0803 202° Southwest 399 459 26,800 1,728 Climbing Los Angeles Center
Wed 07:27:41 PM 35.2328 -115.1411 201° Southwest 413 475 28,000 576 Climbing Los Angeles Center
Wed 07:28:43 PM 35.1189 -115.1964 202° Southwest 434 499 28,000  Level Los Angeles Center
Wed 07:29:45 PM 35.0125 -115.2472 201° Southwest 436 502 28,000  Level Los Angeles Center
Wed 07:30:47 PM 34.8925 -115.3025 201° Southwest 436 502 28,000  Level Los Angeles Center
Wed 07:31:49 PM 34.7792 -115.3569 202° Southwest 436 502 28,000 -48 Level Los Angeles Center
Wed 07:32:51 PM 34.6564 -115.4136 201° Southwest 435 501 27,900 -48 Descending Los Angeles Center
Wed 07:33:54 PM 34.5442 -115.4661 201° Southwest 434 499 27,900  Level Los Angeles Center
Wed 07:34:56 PM 34.4306 -115.5186 201° Southwest 435 501 27,900  Level Los Angeles Center
Wed 07:35:58 PM 34.3175 -115.5719 201° Southwest 435 501 27,900  Level Los Angeles Center
Wed 07:37:00 PM 34.1822 -115.6339 201° Southwest 435 501 27,900  Level Los Angeles Center
Wed 07:38:02 PM 34.0689 -115.6875 201° Southwest 435 501 27,900  Level Los Angeles Center
Wed 07:39:04 PM 33.9567 -115.7400 201° Southwest 435 501 27,900  Level Los Angeles Center
Wed 07:40:06 PM 33.8436 -115.7919 201° Southwest 435 501 27,900 -192 Level Los Angeles Center
Wed 07:41:09 PM 33.7311 -115.8442 201° Southwest 435 501 27,500 -1,056 Descending Los Angeles Center
Wed 07:42:11 PM 33.6003 -115.9044 201° Southwest 425 489 25,700 -1,742 Descending Los Angeles Center
Wed 07:43:13 PM 33.5039 -115.9664 208° Southwest 408 470 23,900 -871 Descending Los Angeles Center
Wed 07:44:15 PM 33.4408 -116.0722 234° Southwest 395 455 23,900 -726 Level Los Angeles Center
Wed 07:45:17 PM 33.3792 -116.1769 235° Southwest 387 445 22,400 -1,742 Descending Los Angeles Center
Wed 07:46:19 PM 33.3078 -116.2672 227° Southwest 385 443 20,300 -2,256 Descending Los Angeles Center
Wed 07:47:22 PM 33.1975 -116.3319 206° Southwest 370 426 17,700 -2,064 Descending Los Angeles Center
Wed 07:48:24 PM 33.1086 -116.3839 206° Southwest 362 417 16,000 -1,984 Descending Los Angeles Center
Wed 07:49:26 PM 33.0197 -116.4356 206° Southwest 358 412 13,600 -1,935 Descending Los Angeles Center
Wed 07:50:28 PM 32.9364 -116.4842 206° Southwest 349 402 12,000 -1,645 Descending Los Angeles Center
Wed 07:51:30 PM 32.8436 -116.5414 207° Southwest 325 374 10,200 -1,355 Descending Los Angeles Center
Wed 07:52:32 PM 32.8014 -116.6208 238° Southwest 290 334 9,200 -1,152 Descending Los Angeles Center
Wed 07:53:35 PM 32.7625 -116.7006 240° Southwest 284 327 7,800 -1,296 Descending Los Angeles Center
Wed 07:54:37 PM 32.7258 -116.7786 241° Southwest 276 318 6,500 -1,016 Descending Los Angeles Center
Wed 07:55:39 PM 32.6950 -116.8550 244° Southwest 261 300 5,700 -680 Descending Los Angeles Center
Wed 07:56:14 PM 32.6833 -116.9000 253° West 225 259 5,400 -1,146 Descending Southern California TRACON
Wed 07:57:08 PM 32.6833 -116.9667 270° West 221 254 4,000 -1,316 Descending Southern California TRACON
Wed 07:58:08 PM 32.7000 -117.0333 287° West 213 245 2,900 -1,095 Descending Southern California TRACON
Wed 07:59:14 PM 32.7167 -117.1000 287° West 171 197 1,700 -992 Descending Southern California TRACON
Wed 08:00:09 PM 32.7167 -117.1333 270° West 130 150 900 -813 Descending Southern California TRACON
Wed 08:00:50 PM 32.7278 -117.1603 296° West 139 160 400 -732 Descending Los Angeles Center
Wed 08:02:00 PM 32.7333 -117.1833 281° West  Level FlightAware Approximate
Wed 08:09:00 PM 32.7336 -117.1897 281° West  Level Estimated
Wed 08:10:00 PM 32.7333 -117.1833 281° West  Level FlightAware Approximate

Login

Don't have an account? Register now (free) for customized features, flight alerts, and more!